Time;durP1;ratioP1;P1;durP2;ratioP2;P2;SDS_P1;SDS_P2;PMS_P1;PMS_P2;Temp;Humidity;BMP_temperature;BMP_pressure;BME280_temperature;BME280_humidity;BME280_pressure;Samples;Min_cycle;Max_cycle;Signal;HPM_P1;HPM_P2
2023/07/07 00:01:07;;;;;;;4.53;2.20;;;15.00;95.50;;;;;;4927926;29;20527;-64
2023/07/07 00:03:34;;;;;;;4.30;2.50;;;14.90;95.80;;;;;;4926152;29;20092;-64
2023/07/07 00:06:00;;;;;;;4.60;1.73;;;14.90;96.00;;;;;;4925500;29;20512;-64
2023/07/07 00:08:26;;;;;;;2.67;2.22;;;14.80;96.20;;;;;;4924255;29;20118;-64
2023/07/07 00:10:53;;;;;;;3.17;1.95;;;14.90;96.40;;;;;;4922069;29;20060;-64
2023/07/07 00:13:20;;;;;;;3.38;2.00;;;14.90;96.20;;;;;;4923266;29;20039;-64
2023/07/07 00:15:46;;;;;;;3.55;2.08;;;14.90;96.10;;;;;;4919403;29;20043;-64
2023/07/07 00:18:26;;;;;;;2.78;1.88;;;14.80;96.30;;;;;;4924621;29;20031;-64
2023/07/07 00:20:55;;;;;;;2.00;1.83;;;14.80;96.70;;;;;;4926435;29;20032;-64
2023/07/07 00:23:21;;;;;;;2.28;1.92;;;14.80;96.80;;;;;;4927224;29;20031;-64
2023/07/07 00:26:02;;;;;;;3.05;2.25;;;14.80;97.00;;;;;;4922980;29;20058;-64
2023/07/07 00:28:28;;;;;;;4.18;2.20;;;14.80;97.00;;;;;;4922312;29;20036;-64
2023/07/07 00:30:54;;;;;;;2.75;2.15;;;14.80;97.10;;;;;;4905745;29;20036;-64
2023/07/07 00:33:20;;;;;;;3.17;2.00;;;14.80;97.20;;;;;;4902013;29;20110;-64
2023/07/07 00:35:47;;;;;;;2.75;2.13;;;14.80;97.40;;;;;;4925220;29;20039;-64
2023/07/07 00:38:13;;;;;;;2.28;2.05;;;14.80;97.20;;;;;;4908880;29;20047;-64
2023/07/07 00:40:40;;;;;;;4.55;2.20;;;14.80;97.10;;;;;;4922626;29;20032;-64
2023/07/07 00:43:26;;;;;;;3.17;2.15;;;14.80;97.20;;;;;;4907121;29;20151;-64
2023/07/07 00:45:52;;;;;;;2.53;2.03;;;14.80;97.30;;;;;;4921850;29;20032;-64
2023/07/07 00:48:27;;;;;;;3.20;2.50;;;14.70;97.60;;;;;;4921598;29;20083;-64
2023/07/07 00:50:58;;;;;;;4.03;2.87;;;14.70;97.70;;;;;;4919799;29;20044;-64
2023/07/07 00:53:25;;;;;;;3.50;2.63;;;14.70;97.90;;;;;;4922041;29;20035;-64
2023/07/07 00:55:58;;;;;;;4.60;2.42;;;14.70;98.10;;;;;;4924423;29;20040;-64
2023/07/07 00:58:25;;;;;;;2.58;2.05;;;14.70;98.40;;;;;;4921575;29;20040;-64
2023/07/07 01:01:07;;;;;;;3.35;2.20;;;14.60;98.60;;;;;;4919341;29;20515;-64
2023/07/07 01:03:38;;;;;;;3.47;2.17;;;14.60;98.80;;;;;;4919383;29;20028;-64
2023/07/07 01:06:07;;;;;;;4.53;2.95;;;14.60;98.90;;;;;;4904758;29;20035;-64
2023/07/07 01:08:36;;;;;;;3.67;2.22;;;14.60;98.90;;;;;;4917849;29;20031;-64
2023/07/07 01:11:02;;;;;;;3.28;2.30;;;14.60;99.10;;;;;;4909957;29;20032;-64
2023/07/07 01:13:28;;;;;;;3.78;2.60;;;14.60;99.30;;;;;;4926610;29;20039;-64
2023/07/07 01:16:19;;;;;;;2.70;2.50;;;14.60;99.50;;;;;;4924038;29;20032;-64
2023/07/07 01:19:05;;;;;;;3.85;2.25;;;14.50;99.70;;;;;;4922910;29;20040;-64
2023/07/07 01:21:43;;;;;;;2.40;2.15;;;14.50;99.90;;;;;;4903570;29;20048;-64
2023/07/07 01:24:30;;;;;;;3.15;2.53;;;14.50;99.90;;;;;;4921118;29;20077;-64
2023/07/07 01:27:05;;;;;;;3.23;2.57;;;14.50;99.90;;;;;;4919497;29;20032;-64
2023/07/07 01:29:49;;;;;;;4.75;2.58;;;14.50;99.90;;;;;;4926793;29;20276;-64
2023/07/07 01:32:21;;;;;;;5.90;2.30;;;14.50;99.90;;;;;;4908132;29;20106;-64
2023/07/07 01:34:47;;;;;;;3.13;2.70;;;14.40;99.90;;;;;;4922864;29;20043;-64
2023/07/07 01:37:13;;;;;;;3.85;2.70;;;14.40;99.90;;;;;;4909995;29;20142;-64
2023/07/07 01:39:41;;;;;;;2.88;2.38;;;14.40;99.90;;;;;;4918142;29;20051;-64
2023/07/07 01:42:18;;;;;;;5.28;2.78;;;14.40;99.90;;;;;;4923950;29;20045;-64
2023/07/07 01:44:54;;;;;;;4.10;2.70;;;14.40;99.90;;;;;;4917480;29;20121;-64
2023/07/07 01:47:35;;;;;;;3.45;2.38;;;14.40;99.90;;;;;;4909244;29;20061;-64
2023/07/07 01:50:16;;;;;;;3.45;2.45;;;14.40;99.90;;;;;;4923819;29;20035;-64
2023/07/07 01:52:54;;;;;;;4.05;2.65;;;14.40;99.90;;;;;;4922008;29;20035;-64
2023/07/07 01:55:31;;;;;;;2.80;2.30;;;14.40;99.90;;;;;;4904157;29;20068;-64
2023/07/07 01:58:00;;;;;;;3.40;2.30;;;14.30;99.90;;;;;;4906045;29;21368;-64
2023/07/07 02:00:29;;;;;;;3.53;2.63;;;14.30;99.90;;;;;;4918898;29;20262;-64
2023/07/07 02:02:57;;;;;;;4.22;2.42;;;14.30;99.90;;;;;;4919114;29;20043;-64
2023/07/07 02:05:23;;;;;;;5.47;2.33;;;14.30;99.90;;;;;;4925914;29;20050;-64
2023/07/07 02:07:49;;;;;;;6.10;2.60;;;14.30;99.90;;;;;;4923769;29;20249;-64
2023/07/07 02:10:15;;;;;;;8.00;2.60;;;14.30;99.90;;;;;;4909597;29;20119;-64
2023/07/07 02:12:41;;;;;;;3.58;2.53;;;14.30;99.90;;;;;;4922597;29;20028;-65
2023/07/07 02:15:07;;;;;;;4.22;2.58;;;14.20;99.90;;;;;;4909608;29;20062;-64
2023/07/07 02:17:33;;;;;;;7.75;2.50;;;14.20;99.90;;;;;;4902052;29;20051;-64
2023/07/07 02:19:59;;;;;;;3.95;2.40;;;14.20;99.90;;;;;;4902321;29;20119;-64
2023/07/07 02:22:25;;;;;;;3.72;2.50;;;14.10;99.90;;;;;;4922135;29;20066;-64
2023/07/07 02:24:51;;;;;;;4.05;2.80;;;14.10;99.90;;;;;;4913065;29;20076;-64
2023/07/07 02:27:17;;;;;;;3.45;2.72;;;14.20;99.90;;;;;;4923999;29;20035;-65
2023/07/07 02:29:43;;;;;;;4.00;2.95;;;14.20;99.90;;;;;;4920552;29;20036;-68
2023/07/07 02:32:09;;;;;;;4.35;3.83;;;14.20;99.90;;;;;;4921488;29;20035;-64
2023/07/07 02:34:35;;;;;;;3.58;3.17;;;14.30;99.90;;;;;;4917582;29;20136;-64
2023/07/07 02:37:01;;;;;;;5.88;3.42;;;14.30;99.90;;;;;;4903011;29;20027;-64
2023/07/07 02:39:28;;;;;;;5.63;3.45;;;14.30;99.90;;;;;;4922287;29;20500;-65
2023/07/07 02:41:54;;;;;;;4.18;3.10;;;14.40;99.90;;;;;;4910076;29;20051;-64
2023/07/07 02:44:20;;;;;;;4.38;3.35;;;14.30;99.90;;;;;;4924046;29;20042;-64
2023/07/07 02:46:46;;;;;;;4.30;3.00;;;14.40;99.90;;;;;;4919679;29;20493;-64
2023/07/07 02:49:12;;;;;;;3.83;3.30;;;14.40;99.90;;;;;;4904466;29;20028;-64
2023/07/07 02:51:38;;;;;;;4.18;2.88;;;14.40;99.90;;;;;;4906150;29;20725;-64
2023/07/07 02:54:03;;;;;;;4.13;3.10;;;14.40;99.90;;;;;;4919321;29;20160;-64
2023/07/07 02:56:29;;;;;;;3.50;2.58;;;14.40;99.90;;;;;;4922509;29;20040;-64
2023/07/07 02:58:56;;;;;;;4.20;2.85;;;14.50;99.90;;;;;;4922848;29;20032;-64
2023/07/07 03:01:23;;;;;;;3.40;2.70;;;14.40;99.90;;;;;;4911669;29;20699;-64
2023/07/07 03:03:51;;;;;;;3.13;2.58;;;14.50;99.90;;;;;;4924905;29;20028;-64
2023/07/07 03:06:19;;;;;;;2.88;2.55;;;14.40;99.90;;;;;;4905160;29;20465;-64
2023/07/07 03:08:47;;;;;;;3.35;2.40;;;14.40;99.90;;;;;;4905290;29;20428;-64
2023/07/07 03:11:18;;;;;;;3.38;2.58;;;14.40;99.90;;;;;;4905537;29;20036;-64
2023/07/07 03:13:48;;;;;;;4.53;2.30;;;14.40;99.90;;;;;;4920055;29;20039;-64
2023/07/07 03:16:22;;;;;;;2.90;2.65;;;14.30;99.90;;;;;;4912237;29;20125;-64
2023/07/07 03:18:56;;;;;;;4.15;2.47;;;14.30;99.90;;;;;;4925226;29;20888;-64
2023/07/07 03:21:24;;;;;;;4.40;2.70;;;14.30;99.90;;;;;;4907003;29;20045;-64
2023/07/07 03:23:58;;;;;;;8.32;2.58;;;14.30;99.90;;;;;;4910847;29;20042;-64
2023/07/07 03:26:27;;;;;;;3.17;2.45;;;14.30;99.90;;;;;;4907946;29;20039;-64
2023/07/07 03:28:55;;;;;;;3.25;2.50;;;14.30;99.90;;;;;;4906190;29;20046;-64
2023/07/07 03:31:27;;;;;;;3.65;2.70;;;14.30;99.90;;;;;;4918383;29;20090;-64
2023/07/07 03:34:00;;;;;;;4.10;2.27;;;14.30;99.90;;;;;;4911386;29;20036;-64
2023/07/07 03:36:30;;;;;;;2.90;2.60;;;14.30;99.90;;;;;;4907602;29;20859;-64
2023/07/07 03:38:57;;;;;;;3.22;2.60;;;14.20;99.90;;;;;;4910518;29;20918;-64
2023/07/07 03:41:28;;;;;;;3.75;2.47;;;14.20;99.90;;;;;;4907528;29;20043;-64
2023/07/07 03:43:55;;;;;;;3.60;2.88;;;14.20;99.90;;;;;;4921385;29;20039;-64
2023/07/07 03:46:25;;;;;;;6.93;3.33;;;14.20;99.90;;;;;;4920034;29;20114;-64
2023/07/07 03:48:53;;;;;;;4.45;3.05;;;14.30;99.90;;;;;;4903569;29;20096;-64
2023/07/07 03:51:22;;;;;;;4.55;3.00;;;14.20;99.90;;;;;;4911729;29;20032;-64
2023/07/07 03:53:49;;;;;;;5.45;3.10;;;14.20;99.90;;;;;;4926158;29;20024;-65
2023/07/07 03:56:16;;;;;;;3.53;2.90;;;14.30;99.90;;;;;;4910440;29;20523;-64
2023/07/07 03:58:43;;;;;;;4.22;2.90;;;14.30;99.90;;;;;;4906502;29;20504;-64
2023/07/07 04:01:12;;;;;;;4.88;3.20;;;14.30;99.90;;;;;;4926510;29;20794;-64
2023/07/07 04:03:38;;;;;;;7.65;2.92;;;14.30;99.90;;;;;;4919640;29;20456;-64
2023/07/07 04:06:05;;;;;;;4.72;3.45;;;14.40;99.90;;;;;;4911479;29;20039;-64
2023/07/07 04:08:33;;;;;;;4.10;3.40;;;14.40;99.90;;;;;;4924909;29;20339;-64
2023/07/07 04:11:01;;;;;;;4.22;2.85;;;14.50;99.90;;;;;;4926580;29;20028;-64
2023/07/07 04:13:28;;;;;;;4.40;3.20;;;14.50;99.90;;;;;;4923263;29;20778;-64
2023/07/07 04:16:15;;;;;;;3.53;2.95;;;14.50;99.90;;;;;;4907355;29;20468;-64
2023/07/07 04:18:43;;;;;;;5.45;3.03;;;14.50;99.90;;;;;;4907094;29;20067;-64
2023/07/07 04:21:18;;;;;;;6.18;3.20;;;14.60;99.90;;;;;;4923032;29;20115;-64
2023/07/07 04:23:46;;;;;;;4.15;3.15;;;14.60;99.90;;;;;;4917164;29;20036;-64
2023/07/07 04:26:12;;;;;;;3.55;3.05;;;14.60;99.90;;;;;;4903980;29;20615;-64
2023/07/07 04:28:39;;;;;;;5.30;3.00;;;14.70;99.90;;;;;;4926116;29;20039;-64
2023/07/07 04:31:07;;;;;;;5.15;3.03;;;14.70;99.90;;;;;;4925618;29;20059;-64
2023/07/07 04:33:33;;;;;;;6.40;3.28;;;14.80;99.90;;;;;;4923051;29;20375;-64
2023/07/07 04:36:02;;;;;;;4.22;3.15;;;14.80;99.90;;;;;;4923379;29;20023;-64
2023/07/07 04:38:31;;;;;;;5.40;3.05;;;14.80;99.90;;;;;;4920673;29;20046;-64
2023/07/07 04:41:09;;;;;;;5.40;3.63;;;14.90;99.90;;;;;;4920254;29;21338;-65
2023/07/07 04:43:43;;;;;;;3.20;2.90;;;15.00;99.90;;;;;;4920348;29;20122;-64
2023/07/07 04:46:12;;;;;;;4.78;3.65;;;15.00;99.90;;;;;;4924273;29;20984;-60
2023/07/07 04:48:38;;;;;;;4.30;3.40;;;15.10;99.90;;;;;;4893371;29;20039;-60
2023/07/07 04:51:07;;;;;;;5.75;3.50;;;15.20;99.90;;;;;;4923250;29;20046;-61
2023/07/07 04:53:34;;;;;;;5.03;3.60;;;15.30;99.90;;;;;;4920606;29;20031;-60
2023/07/07 04:56:01;;;;;;;3.45;3.05;;;15.50;99.90;;;;;;4920851;29;20034;-60
2023/07/07 04:58:28;;;;;;;7.47;3.05;;;15.60;99.90;;;;;;4917204;29;20106;-60
2023/07/07 05:01:10;;;;;;;3.75;3.30;;;15.70;99.90;;;;;;4922105;29;20039;-60
2023/07/07 05:03:37;;;;;;;5.85;3.15;;;15.80;99.90;;;;;;4922573;29;20507;-61
2023/07/07 05:06:04;;;;;;;4.50;3.00;;;16.00;99.90;;;;;;4924316;29;20631;-60
2023/07/07 05:08:35;;;;;;;5.03;3.33;;;16.00;99.90;;;;;;4922500;29;20035;-61
2023/07/07 05:11:02;;;;;;;4.88;2.95;;;16.10;99.90;;;;;;4922023;29;20135;-61
2023/07/07 05:13:28;;;;;;;4.88;3.33;;;16.20;99.90;;;;;;4920454;29;20036;-61
2023/07/07 05:16:02;;;;;;;4.93;3.10;;;16.30;99.90;;;;;;4919966;29;20035;-61
2023/07/07 05:18:28;;;;;;;4.25;2.92;;;16.50;99.90;;;;;;4918970;29;20054;-61
2023/07/07 05:20:54;;;;;;;6.00;3.20;;;16.50;99.90;;;;;;4925749;29;20032;-61
2023/07/07 05:23:20;;;;;;;3.22;2.92;;;16.60;99.90;;;;;;4924899;29;20480;-60
2023/07/07 05:25:46;;;;;;;3.22;2.92;;;16.70;99.90;;;;;;4922411;29;20147;-61
2023/07/07 05:28:12;;;;;;;3.72;3.05;;;16.90;99.90;;;;;;4922679;29;20039;-63
2023/07/07 05:30:41;;;;;;;4.13;2.80;;;17.30;99.90;;;;;;4918724;29;20078;-60
2023/07/07 05:33:07;;;;;;;4.20;2.95;;;17.70;99.90;;;;;;4920511;29;20035;-60
2023/07/07 05:35:32;;;;;;;3.72;2.72;;;18.00;99.90;;;;;;4916123;29;20047;-60
2023/07/07 05:38:00;;;;;;;6.43;2.60;;;18.00;99.90;;;;;;4925791;29;20688;-60
2023/07/07 05:40:29;;;;;;;7.63;3.83;;;18.10;99.80;;;;;;4925311;29;20031;-60
2023/07/07 05:42:55;;;;;;;6.38;4.47;;;18.20;99.50;;;;;;4922427;29;20027;-60
2023/07/07 05:45:24;;;;;;;6.55;4.28;;;18.20;99.40;;;;;;4909634;29;20154;-60
2023/07/07 05:47:50;;;;;;;5.88;4.45;;;18.30;99.50;;;;;;4920293;29;20050;-61
2023/07/07 05:50:15;;;;;;;8.15;4.28;;;18.30;99.50;;;;;;4919841;29;20031;-60
2023/07/07 05:52:41;;;;;;;3.83;2.83;;;18.40;99.30;;;;;;4915318;29;20028;-60
2023/07/07 05:55:21;;;;;;;5.15;2.90;;;18.50;99.00;;;;;;4926179;29;20503;-61
2023/07/07 05:57:46;;;;;;;5.50;3.20;;;18.60;98.50;;;;;;4923953;29;20259;-60
2023/07/07 06:00:13;;;;;;;4.85;2.42;;;18.80;98.10;;;;;;4923272;29;20036;-61
2023/07/07 06:02:39;;;;;;;2.60;2.10;;;19.00;96.70;;;;;;4920992;29;20046;-60
2023/07/07 06:05:05;;;;;;;5.90;2.50;;;19.20;96.40;;;;;;4921569;29;20031;-61
2023/07/07 06:07:31;;;;;;;3.13;1.77;;;19.40;95.90;;;;;;4918491;29;20723;-60
2023/07/07 06:09:57;;;;;;;3.65;2.17;;;19.50;95.90;;;;;;4916576;29;20038;-60
2023/07/07 06:12:23;;;;;;;2.15;1.90;;;19.60;95.70;;;;;;4922158;29;20035;-61
2023/07/07 06:14:49;;;;;;;2.97;1.90;;;19.70;94.80;;;;;;4924219;29;20042;-61
2023/07/07 06:17:15;;;;;;;2.78;1.95;;;19.80;94.00;;;;;;4924001;29;20032;-61
2023/07/07 06:19:41;;;;;;;2.45;1.70;;;19.90;93.40;;;;;;4920871;29;20039;-61
2023/07/07 06:22:07;;;;;;;2.45;1.48;;;20.00;93.00;;;;;;4921894;29;20040;-60
2023/07/07 06:24:33;;;;;;;2.20;1.60;;;20.20;92.60;;;;;;4918900;29;20070;-60
2023/07/07 06:26:58;;;;;;;2.60;2.00;;;20.20;91.90;;;;;;4918700;29;20031;-61
2023/07/07 06:29:24;;;;;;;2.15;1.50;;;20.40;90.60;;;;;;4918629;29;20099;-65
2023/07/07 06:31:50;;;;;;;1.90;1.58;;;20.50;89.50;;;;;;4925070;29;20028;-60
2023/07/07 06:34:15;;;;;;;3.15;1.55;;;20.70;87.00;;;;;;4924175;29;20424;-61
2023/07/07 06:36:41;;;;;;;5.10;1.60;;;20.80;87.10;;;;;;4921155;29;20468;-61
2023/07/07 06:39:07;;;;;;;2.85;1.70;;;20.80;89.90;;;;;;4921844;29;20043;-61
2023/07/07 06:41:33;;;;;;;2.45;1.50;;;20.80;90.20;;;;;;4901149;29;20042;-61
2023/07/07 06:43:58;;;;;;;3.08;2.35;;;20.80;89.20;;;;;;4903098;29;20067;-60
2023/07/07 06:46:25;;;;;;;2.90;2.20;;;20.80;87.60;;;;;;4915688;29;20043;-61
2023/07/07 06:48:51;;;;;;;3.05;1.98;;;20.90;86.30;;;;;;4923316;29;20035;-60
2023/07/07 06:51:18;;;;;;;2.33;1.73;;;20.90;87.00;;;;;;4923872;29;20046;-61
2023/07/07 06:53:44;;;;;;;1.98;1.77;;;21.10;84.40;;;;;;4921551;29;20874;-60
2023/07/07 06:56:10;;;;;;;2.85;1.75;;;21.20;83.30;;;;;;4921900;29;20062;-60
2023/07/07 06:58:36;;;;;;;2.38;1.80;;;21.20;84.50;;;;;;4918513;29;20127;-60
2023/07/07 07:01:02;;;;;;;1.90;1.67;;;21.30;83.50;;;;;;4919880;29;20036;-60
2023/07/07 07:03:29;;;;;;;2.03;1.65;;;21.30;84.10;;;;;;4915873;29;20724;-61
2023/07/07 07:05:55;;;;;;;3.13;1.80;;;21.40;82.00;;;;;;4924695;29;20135;-61
2023/07/07 07:08:21;;;;;;;2.08;1.45;;;21.50;80.90;;;;;;4924928;29;20146;-61
2023/07/07 07:10:46;;;;;;;5.47;1.70;;;21.50;80.10;;;;;;4921515;29;20067;-61
2023/07/07 07:13:12;;;;;;;2.03;1.58;;;21.50;80.00;;;;;;4924077;29;20589;-61
2023/07/07 07:15:38;;;;;;;2.60;1.73;;;21.50;79.20;;;;;;4920207;29;20029;-61
2023/07/07 07:18:04;;;;;;;3.03;1.75;;;21.60;78.90;;;;;;4902446;29;20841;-61
2023/07/07 07:20:30;;;;;;;1.65;1.50;;;21.60;78.10;;;;;;4916239;29;20032;-61
2023/07/07 07:22:55;;;;;;;3.45;1.63;;;21.70;77.80;;;;;;4920731;29;20044;-61
2023/07/07 07:25:21;;;;;;;1.40;1.30;;;21.70;77.30;;;;;;4924319;29;20188;-61
2023/07/07 07:27:47;;;;;;;1.85;1.55;;;21.90;78.70;;;;;;4922708;29;20040;-61
2023/07/07 07:30:15;;;;;;;1.88;1.60;;;21.90;77.50;;;;;;4922099;29;20031;-61
2023/07/07 07:32:41;;;;;;;1.67;1.52;;;22.00;75.10;;;;;;4918719;29;20084;-61
2023/07/07 07:35:09;;;;;;;1.67;1.30;;;22.00;75.40;;;;;;4920228;29;20036;-61
2023/07/07 07:37:35;;;;;;;4.00;1.30;;;22.10;76.80;;;;;;4916485;29;20036;-61
2023/07/07 07:40:00;;;;;;;4.10;1.80;;;22.10;79.70;;;;;;4917577;29;20120;-61
2023/07/07 07:42:26;;;;;;;2.58;1.70;;;22.20;74.40;;;;;;4924325;29;20413;-61
2023/07/07 07:44:52;;;;;;;4.45;1.80;;;22.30;73.90;;;;;;4922863;29;20047;-61
2023/07/07 07:47:19;;;;;;;1.50;1.40;;;22.30;75.00;;;;;;4922809;29;20427;-61
2023/07/07 07:49:45;;;;;;;3.47;1.60;;;22.40;75.00;;;;;;4922671;29;20088;-61
2023/07/07 07:52:11;;;;;;;2.38;1.60;;;22.40;74.30;;;;;;4922233;29;20056;-61
2023/07/07 07:54:38;;;;;;;2.38;1.42;;;22.40;74.80;;;;;;4919248;29;20040;-61
2023/07/07 07:57:04;;;;;;;6.53;1.77;;;22.40;74.80;;;;;;4922181;29;20083;-61
2023/07/07 07:59:31;;;;;;;2.03;1.30;;;22.50;73.80;;;;;;4924378;29;20044;-61
2023/07/07 08:01:57;;;;;;;1.70;1.40;;;22.50;72.60;;;;;;4925924;29;20412;-61
2023/07/07 08:04:23;;;;;;;1.98;1.50;;;22.60;72.70;;;;;;4925675;29;20039;-61
2023/07/07 08:06:54;;;;;;;3.67;1.60;;;22.50;72.70;;;;;;4923123;29;20036;-61
2023/07/07 08:09:20;;;;;;;2.17;1.17;;;22.60;71.20;;;;;;4921843;29;20033;-61
2023/07/07 08:11:46;;;;;;;1.20;1.02;;;22.70;70.70;;;;;;4922240;29;20027;-61
2023/07/07 08:14:18;;;;;;;2.13;1.63;;;22.70;71.40;;;;;;4920754;29;20039;-61
2023/07/07 08:16:48;;;;;;;1.85;1.40;;;22.80;70.80;;;;;;4925620;29;20043;-61
2023/07/07 08:19:15;;;;;;;3.80;1.42;;;22.90;70.50;;;;;;4926648;29;20477;-61
2023/07/07 08:21:40;;;;;;;1.85;1.30;;;22.90;69.60;;;;;;4924400;29;20469;-61
2023/07/07 08:24:07;;;;;;;1.77;1.20;;;23.00;65.80;;;;;;4924096;29;20036;-61
2023/07/07 08:26:34;;;;;;;1.40;1.30;;;23.00;67.60;;;;;;4922048;29;20114;-61
2023/07/07 08:29:00;;;;;;;1.85;1.38;;;23.00;67.60;;;;;;4921935;29;20118;-61
2023/07/07 08:31:26;;;;;;;3.58;1.60;;;23.10;65.20;;;;;;4918949;29;20031;-61
2023/07/07 08:33:52;;;;;;;4.47;1.30;;;23.10;66.90;;;;;;4922712;29;20503;-61
2023/07/07 08:36:18;;;;;;;3.53;1.20;;;23.20;65.10;;;;;;4927182;29;20031;-61
2023/07/07 08:38:44;;;;;;;2.10;1.25;;;23.30;68.30;;;;;;4924497;29;20028;-61
2023/07/07 08:41:10;;;;;;;3.30;1.50;;;23.30;66.40;;;;;;4924919;29;20612;-61
2023/07/07 08:43:37;;;;;;;3.17;1.45;;;23.40;65.90;;;;;;4923666;29;20396;-62
2023/07/07 08:46:11;;;;;;;5.47;1.50;;;23.40;66.80;;;;;;4922772;29;20040;-64
2023/07/07 08:48:57;;;;;;;1.60;1.00;;;23.50;65.90;;;;;;4917686;29;20047;-67
2023/07/07 08:51:48;;;;;;;1.63;1.20;;;23.70;66.60;;;;;;4923000;29;20156;-64
2023/07/07 08:54:30;;;;;;;1.52;1.10;;;23.90;64.20;;;;;;4923947;29;20504;-62
2023/07/07 08:57:09;;;;;;;3.50;1.23;;;24.00;62.30;;;;;;4924423;29;20042;-62
2023/07/07 08:59:55;;;;;;;1.58;1.20;;;24.00;63.60;;;;;;4921876;29;20067;-63
2023/07/07 09:03:02;;;;;;;1.63;1.30;;;24.10;62.40;;;;;;4920660;29;20780;-61
2023/07/07 09:05:34;;;;;;;1.77;1.20;;;24.30;62.50;;;;;;4909727;29;20135;-61
2023/07/07 09:08:03;;;;;;;2.88;1.33;;;24.40;62.00;;;;;;4919538;29;20028;-61
2023/07/07 09:10:45;;;;;;;3.03;1.10;;;24.50;61.40;;;;;;4925584;29;20717;-61
2023/07/07 09:13:31;;;;;;;2.13;1.02;;;24.60;61.60;;;;;;4922693;29;20061;-64
2023/07/07 09:16:23;;;;;;;1.48;1.30;;;24.60;59.70;;;;;;4923420;29;20059;-64
2023/07/07 09:19:13;;;;;;;2.40;1.20;;;24.80;58.00;;;;;;4921431;29;20755;-64
2023/07/07 09:21:43;;;;;;;3.00;1.40;;;24.80;57.60;;;;;;4919544;29;20830;-64
2023/07/07 09:24:43;;;;;;;3.25;1.50;;;24.80;57.30;;;;;;4919842;29;20095;-63
2023/07/07 09:27:16;;;;;;;3.13;1.33;;;24.80;56.90;;;;;;4924162;29;20087;-64
2023/07/07 09:29:43;;;;;;;2.05;1.15;;;24.90;59.60;;;;;;4922036;29;20144;-64
2023/07/07 09:32:19;;;;;;;2.10;1.30;;;24.90;57.30;;;;;;4907031;29;20040;-64
2023/07/07 09:34:45;;;;;;;1.52;1.08;;;25.00;57.50;;;;;;4921681;29;20070;-64
2023/07/07 09:37:48;;;;;;;6.07;1.40;;;25.10;56.40;;;;;;4922768;29;20473;-64
2023/07/07 09:40:17;;;;;;;1.52;1.17;;;25.20;56.40;;;;;;4919871;29;20066;-64
2023/07/07 09:42:55;;;;;;;2.25;1.13;;;25.20;57.50;;;;;;4916930;29;20117;-64
2023/07/07 09:45:53;;;;;;;1.50;1.40;;;25.30;55.90;;;;;;4922644;29;20143;-64
2023/07/07 09:48:37;;;;;;;3.13;1.30;;;25.30;56.30;;;;;;4920978;29;20047;-64
2023/07/07 09:51:31;;;;;;;2.20;1.45;;;25.40;55.70;;;;;;4920937;29;20031;-64
2023/07/07 09:53:57;;;;;;;2.03;0.80;;;25.50;54.60;;;;;;4921420;29;20396;-64
2023/07/07 09:56:31;;;;;;;2.15;1.25;;;25.50;55.60;;;;;;4921003;29;20035;-64
2023/07/07 09:59:10;;;;;;;3.05;1.35;;;25.50;55.60;;;;;;4919673;29;20034;-64
2023/07/07 10:01:39;;;;;;;3.47;1.88;;;25.60;55.20;;;;;;4915707;29;20096;-64
2023/07/07 10:04:13;;;;;;;1.33;1.20;;;25.70;54.70;;;;;;4925645;29;20087;-64
2023/07/07 10:06:47;;;;;;;2.80;1.10;;;25.70;54.00;;;;;;4923672;29;20042;-64
2023/07/07 10:09:14;;;;;;;2.67;1.42;;;25.70;54.00;;;;;;4922707;29;20051;-64
2023/07/07 10:11:42;;;;;;;1.40;1.13;;;25.70;52.70;;;;;;4921592;29;20039;-64
2023/07/07 10:14:13;;;;;;;4.03;1.50;;;25.70;53.40;;;;;;4922806;29;20496;-64
2023/07/07 10:16:57;;;;;;;2.33;1.25;;;25.70;54.00;;;;;;4916669;29;20646;-64
2023/07/07 10:19:24;;;;;;;2.03;1.42;;;25.80;53.90;;;;;;4920970;29;20484;-64
2023/07/07 10:21:51;;;;;;;2.50;1.75;;;25.80;54.00;;;;;;4924955;29;20040;-64
2023/07/07 10:24:17;;;;;;;3.33;1.80;;;25.90;52.80;;;;;;4923643;29;20327;-64
2023/07/07 10:26:47;;;;;;;1.50;1.40;;;25.90;54.50;;;;;;4921765;29;20035;-65
2023/07/07 10:29:23;;;;;;;1.40;1.30;;;26.00;54.40;;;;;;4922029;29;20052;-62
2023/07/07 10:31:52;;;;;;;2.50;1.30;;;26.10;54.10;;;;;;4919229;29;20139;-62
2023/07/07 10:34:35;;;;;;;1.55;1.30;;;26.10;53.40;;;;;;4918541;29;20059;-62
2023/07/07 10:37:01;;;;;;;1.85;1.40;;;26.10;53.80;;;;;;4922078;29;20079;-62
2023/07/07 10:39:31;;;;;;;1.48;1.25;;;26.10;53.00;;;;;;4925788;29;20036;-61
2023/07/07 10:41:57;;;;;;;2.75;1.38;;;26.20;51.60;;;;;;4923924;29;20042;-62
2023/07/07 10:44:27;;;;;;;1.45;1.30;;;26.40;50.40;;;;;;4920563;29;20142;-62
2023/07/07 10:46:53;;;;;;;2.00;1.60;;;26.70;51.30;;;;;;4920841;29;20055;-62
2023/07/07 10:49:26;;;;;;;2.15;1.20;;;26.80;51.40;;;;;;4920125;29;20051;-62
2023/07/07 10:52:04;;;;;;;1.60;1.40;;;26.80;51.30;;;;;;4917949;29;20147;-62
2023/07/07 10:54:50;;;;;;;1.42;1.33;;;26.80;51.20;;;;;;4899145;29;20119;-62
2023/07/07 10:57:15;;;;;;;;;;;26.90;52.50;;;;;;4902991;29;20055;-62
2023/07/07 10:59:47;;;;;;;;;;;27.00;50.40;;;;;;4923053;29;19982;-62
2023/07/07 11:02:28;;;;;;;2.80;1.40;;;27.10;50.80;;;;;;4923118;29;19915;-61
2023/07/07 11:05:13;;;;;;;1.98;1.38;;;27.10;51.30;;;;;;4920316;29;20071;-62
2023/07/07 11:08:05;;;;;;;2.63;1.42;;;27.20;50.60;;;;;;4919753;29;20115;-62
2023/07/07 11:10:42;;;;;;;3.38;1.58;;;27.30;51.90;;;;;;4918397;29;20036;-63
2023/07/07 11:13:18;;;;;;;2.50;1.40;;;27.30;50.40;;;;;;4916833;29;20032;-62
2023/07/07 11:15:57;;;;;;;;;;;27.20;50.00;;;;;;4923833;29;20044;-61
2023/07/07 11:18:41;;;;;;;1.35;1.08;;;27.20;50.50;;;;;;4924946;29;20519;-62
2023/07/07 11:21:28;;;;;;;0.85;0.85;;;27.10;50.30;;;;;;4920984;29;20066;-61
2023/07/07 11:24:06;;;;;;;2.13;1.40;;;27.00;49.00;;;;;;4923713;29;20040;-62
2023/07/07 11:26:49;;;;;;;1.45;1.35;;;27.00;50.10;;;;;;4921230;29;20075;-64
2023/07/07 11:29:27;;;;;;;1.58;1.20;;;27.00;50.40;;;;;;4917888;29;20515;-62
2023/07/07 11:32:10;;;;;;;1.52;1.30;;;27.00;49.80;;;;;;4927287;29;20046;-62
2023/07/07 11:35:06;;;;;;;2.22;1.40;;;27.00;50.10;;;;;;4924651;29;20049;-61
2023/07/07 11:37:32;;;;;;;1.70;1.15;;;27.00;49.60;;;;;;4923686;29;20081;-61
2023/07/07 11:40:28;;;;;;;1.33;1.23;;;27.00;49.70;;;;;;4924367;29;20039;-64
2023/07/07 11:43:00;;;;;;;;;;;26.90;47.90;;;;;;4922889;29;20040;-64
2023/07/07 11:45:34;;;;;;;1.77;1.40;;;26.80;48.70;;;;;;4923826;29;19921;-64
2023/07/07 11:48:06;;;;;;;1.67;1.30;;;26.80;49.00;;;;;;4921378;29;20033;-64
2023/07/07 11:51:00;;;;;;;4.28;1.52;;;26.80;50.50;;;;;;4924689;29;20293;-64
2023/07/07 11:53:54;;;;;;;2.05;1.35;;;26.90;49.90;;;;;;4926681;29;20043;-64
2023/07/07 11:56:20;;;;;;;2.08;1.35;;;26.90;47.30;;;;;;4925285;29;20134;-64
2023/07/07 11:59:07;;;;;;;1.85;1.30;;;27.00;48.90;;;;;;4921808;29;20154;-64
2023/07/07 12:01:37;;;;;;;1.63;1.25;;;27.00;49.80;;;;;;4923477;29;20756;-64
2023/07/07 12:04:08;;;;;;;2.55;1.42;;;27.10;50.20;;;;;;4921122;29;20035;-64
2023/07/07 12:07:00;;;;;;;2.10;1.40;;;27.20;49.10;;;;;;4921177;29;20043;-64
2023/07/07 12:09:48;;;;;;;1.60;1.40;;;27.10;48.30;;;;;;4919156;29;20066;-64
2023/07/07 12:12:38;;;;;;;11.35;4.20;;;27.10;47.90;;;;;;4926078;29;20032;-61
2023/07/07 12:15:12;;;;;;;136.43;59.67;;;27.00;48.90;;;;;;4922042;29;20146;-61
2023/07/07 12:17:46;;;;;;;4.78;2.80;;;27.00;50.70;;;;;;4921109;29;20719;-61
2023/07/07 12:20:28;;;;;;;2.67;1.40;;;27.10;48.30;;;;;;4921568;29;20579;-62
2023/07/07 12:22:58;;;;;;;2.75;1.25;;;27.20;47.90;;;;;;4919861;29;20087;-62
2023/07/07 12:25:26;;;;;;;1.63;1.20;;;27.30;48.20;;;;;;4928035;29;20110;-64
2023/07/07 12:27:53;;;;;;;2.42;1.25;;;27.40;48.50;;;;;;4925801;29;20044;-64
2023/07/07 12:30:22;;;;;;;1.67;1.23;;;27.30;47.70;;;;;;4925459;29;20480;-64
2023/07/07 12:32:48;;;;;;;3.28;1.33;;;27.30;49.10;;;;;;4921766;29;20146;-64
2023/07/07 12:35:25;;;;;;;3.90;1.50;;;27.40;47.90;;;;;;4922824;29;20483;-64
2023/07/07 12:37:51;;;;;;;2.75;1.20;;;27.40;47.90;;;;;;4920338;29;20039;-64
2023/07/07 12:40:18;;;;;;;2.75;1.48;;;27.40;46.80;;;;;;4919686;29;20410;-64
2023/07/07 12:42:56;;;;;;;1.65;1.08;;;27.30;47.30;;;;;;4924295;29;20040;-64
2023/07/07 12:45:30;;;;;;;1.90;1.45;;;27.30;47.50;;;;;;4924201;29;20048;-64
2023/07/07 12:48:14;;;;;;;2.45;1.27;;;27.30;49.00;;;;;;4924253;29;20444;-64
2023/07/07 12:50:45;;;;;;;4.75;1.65;;;27.40;49.10;;;;;;4921686;29;20040;-62
2023/07/07 12:53:18;;;;;;;3.55;1.35;;;27.60;50.40;;;;;;4922941;29;20119;-65
2023/07/07 12:56:04;;;;;;;4.20;1.27;;;27.50;48.90;;;;;;4919106;29;20047;-64
2023/07/07 12:58:55;;;;;;;2.25;1.60;;;27.50;51.50;;;;;;4917095;29;20033;-64
2023/07/07 13:01:38;;;;;;;2.25;1.58;;;27.60;51.60;;;;;;4926763;29;20031;-64
2023/07/07 13:04:13;;;;;;;1.80;1.30;;;27.70;48.90;;;;;;4922469;29;20035;-64
2023/07/07 13:06:57;;;;;;;1.55;1.30;;;27.90;49.50;;;;;;4922537;29;20050;-64
2023/07/07 13:09:26;;;;;;;2.42;1.55;;;28.00;49.80;;;;;;4921270;29;20504;-64